South Wardsboro, Vermont
Current Conditions -  °F | °C
As of 5:54 AM on Monday 22 Dec 2014 (Local Time) from KDDH Reporting Station
Haze Haze  
Wind Chill: 28°   Ceiling: 3700
Heat Index: 28°   Visibility: 3mi
Dew Point: 26°   Wind: 0mph
Humidity: 92%   Direction: NA
Pressure: 30.32"   Gusts: NA
Location:  43.0205°N, 72.8064°W
Report Text: KDDH 221054Z AUTO 00000KT 3SM BR OVC037 M02/M03 A3032 RMK AO2 SLP278 T10221033
Loading
Personal Weather Stations






























Interactive Weather Map New forecast layout! Learn more

10-Day Weather Forecast

Advertisements
Track Severe Weather on mobile